메인 페이지
METAR-TAF:

METAR-TAF

공항 :

시안 셴양 국제공항

시안, 중국

위도: 34-26N, 경도: 108-45E, 고도: 479m

현재 날씨관측

예보는 53분 전, 20:00시(UTC)에 발표되었습니다.
4kt북북서풍과 북동풍을 오가는
온도 26°C
습도 74%
기압 1004 hPa
시정 10km 이상
1500m 미만 상공 구름 및 적란운 없음

METAR: ZLXY 202000Z 01002MPS 340V050 CAVOK 26/21 Q1004 NOSIG

시각: 04:53 (20:53 UTC)

예보

예보는 5 시간 38분 전, 15:15시(UTC)에 발표되었습니다.
예보 대상 시간: 20일 18시부터 21일 18시까지 (UTC)
동북동6kt
시정: 5000m
연무
전환 중
21일 12시부터 21일 13시까지 (UTC)
시정: 2800m
약한비, 박무
일시적
21일 14시부터 21일 18시까지 (UTC)
고도 4000ft 상공 구름 조금, 적란운.
뇌우, 비

TAF: ZLXY 201515Z 2018/2118 06003MPS 5000 HZ NSC TX36/2108Z TN24/2022Z BECMG 2112/2113 2800 -RA BR TEMPO 2114/2118 TSRA FEW040CB

4,000개 이상의 공항 관측 자료 및 예보 (METAR 및 TAF 보고).

지도상에서 검색 가능한 기상관측소가 노란 점과 빨간 점으로 표시되어 있습니다.

기상관측소 명을 보려면 표시 위로 마우스를 이동하세요.

날씨 관측과 예보를 보려면 클릭하세요.

지도 변경 : 확대하려면 엑스 표시가 있는 녹색 버튼, 축소하려면 빼기 표시가 있는 녹색 버튼, 다음 페이지의 지도를 보려면 녹색 화살표를 클릭하세요.


METAR-TAF: